createdAt,value
2022-12-27T00:01:24.587Z,64.36
2022-12-27T00:03:50.875Z,64.38
2022-12-27T00:06:17.158Z,64.35
2022-12-27T00:08:44.161Z,64.34
2022-12-27T00:11:10.977Z,64.23
2022-12-27T00:13:37.354Z,64.17
2022-12-27T00:16:03.696Z,64.04
2022-12-27T00:18:30.137Z,64.08
2022-12-27T00:20:57.544Z,63.97
2022-12-27T00:23:24.451Z,63.96
2022-12-27T00:25:50.895Z,64.02
2022-12-27T00:28:17.174Z,64.18
2022-12-27T00:30:43.498Z,64.18
2022-12-27T00:33:09.862Z,64.11
2022-12-27T00:35:36.239Z,63.82
2022-12-27T00:38:03.893Z,63.84
2022-12-27T00:40:30.416Z,63.88
2022-12-27T00:42:57.157Z,63.72
2022-12-27T00:45:23.504Z,63.80
2022-12-27T00:47:50.337Z,63.85
2022-12-27T00:50:17.254Z,63.98
2022-12-27T00:52:44.022Z,63.92
2022-12-27T00:55:10.398Z,63.77
2022-12-27T00:57:36.871Z,63.92
2022-12-27T01:00:09.588Z,63.95
2022-12-27T01:02:37.224Z,63.79
2022-12-27T01:05:03.603Z,63.62
2022-12-27T01:07:29.927Z,63.61
2022-12-27T01:09:56.476Z,63.84
2022-12-27T01:12:23.240Z,63.77
2022-12-27T01:14:49.938Z,63.88
2022-12-27T01:17:16.285Z,63.57
2022-12-27T01:19:42.640Z,63.79
2022-12-27T01:22:09.016Z,63.43
2022-12-27T01:24:35.631Z,63.63
2022-12-27T01:27:02.406Z,63.63
2022-12-27T01:29:28.727Z,63.51
2022-12-27T01:31:55.116Z,63.37
2022-12-27T01:34:21.646Z,63.51
2022-12-27T01:36:48.385Z,63.48
2022-12-27T01:39:14.943Z,63.42
2022-12-27T01:41:41.543Z,63.65
2022-12-27T01:44:08.211Z,63.59
2022-12-27T01:46:35.186Z,63.47
2022-12-27T01:49:05.096Z,63.44
2022-12-27T01:51:31.662Z,63.28
2022-12-27T01:53:58.015Z,63.56
2022-12-27T01:56:24.841Z,63.55
2022-12-27T01:58:51.231Z,63.50
2022-12-27T02:01:17.718Z,63.31
2022-12-27T02:03:44.962Z,63.26
2022-12-27T02:06:11.959Z,63.54
2022-12-27T02:08:38.690Z,63.50
2022-12-27T02:11:05.295Z,63.17
2022-12-27T02:13:32.118Z,63.23
2022-12-27T02:15:58.702Z,63.30
2022-12-27T02:18:25.767Z,63.32
2022-12-27T02:20:52.176Z,63.34
2022-12-27T02:23:18.510Z,63.48
2022-12-27T02:25:45.290Z,63.17
2022-12-27T02:28:11.862Z,63.36
2022-12-27T02:30:38.268Z,63.43
2022-12-27T02:33:05.251Z,63.44
2022-12-27T02:35:31.581Z,63.33
2022-12-27T02:37:57.903Z,63.16
2022-12-27T02:40:24.181Z,63.38
2022-12-27T02:42:50.569Z,63.18
2022-12-27T02:45:17.011Z,63.29
2022-12-27T02:47:43.749Z,63.26
2022-12-27T02:50:10.029Z,62.98
2022-12-27T02:52:36.457Z,63.23
2022-12-27T02:55:03.244Z,63.08
2022-12-27T02:57:29.820Z,63.24
2022-12-27T02:59:56.078Z,63.06
2022-12-27T03:02:22.826Z,63.19
2022-12-27T03:04:49.644Z,63.14
2022-12-27T03:07:15.905Z,63.52
2022-12-27T03:09:42.405Z,62.96
2022-12-27T03:12:09.144Z,62.98
2022-12-27T03:14:35.884Z,62.95
2022-12-27T03:17:02.730Z,62.94
2022-12-27T03:19:29.438Z,63.00
2022-12-27T03:21:56.097Z,62.85
2022-12-27T03:24:22.646Z,63.09
2022-12-27T03:26:49.037Z,62.91
2022-12-27T03:29:15.406Z,62.75
2022-12-27T03:31:41.678Z,62.88
2022-12-27T03:34:08.239Z,62.97
2022-12-27T03:36:34.733Z,62.84
2022-12-27T03:39:01.127Z,62.97
2022-12-27T03:41:27.402Z,63.05
2022-12-27T03:43:53.848Z,62.86
2022-12-27T03:46:20.235Z,62.65
2022-12-27T03:48:46.904Z,62.87
2022-12-27T03:51:13.218Z,62.66
2022-12-27T03:53:39.572Z,62.86
2022-12-27T03:56:05.971Z,62.61
2022-12-27T03:58:32.682Z,62.72
2022-12-27T04:00:59.606Z,62.53
2022-12-27T04:03:26.512Z,62.56
2022-12-27T04:05:53.268Z,62.49
2022-12-27T04:08:19.689Z,62.45
2022-12-27T04:10:46.044Z,62.37
2022-12-27T04:13:12.434Z,62.59
2022-12-27T04:15:38.853Z,62.63
2022-12-27T04:18:05.742Z,62.58
2022-12-27T04:20:32.016Z,62.51
2022-12-27T04:22:58.380Z,62.22
2022-12-27T04:25:24.678Z,62.44
2022-12-27T04:27:51.084Z,62.43
2022-12-27T04:30:17.619Z,62.35
2022-12-27T04:32:43.998Z,62.54
2022-12-27T04:35:10.293Z,62.32
2022-12-27T04:37:37.184Z,62.32
2022-12-27T04:40:03.840Z,62.12
2022-12-27T04:42:30.239Z,62.43
2022-12-27T04:44:56.985Z,62.22
2022-12-27T04:47:23.360Z,62.22
2022-12-27T04:49:49.772Z,62.16
2022-12-27T04:52:16.144Z,62.42
2022-12-27T04:54:42.460Z,62.13
2022-12-27T04:57:09.008Z,62.25
2022-12-27T04:59:35.389Z,62.39
2022-12-27T05:02:01.969Z,62.26
2022-12-27T05:04:28.426Z,62.35
2022-12-27T05:06:55.059Z,62.45
2022-12-27T05:09:23.304Z,62.37
2022-12-27T05:11:49.842Z,62.21
2022-12-27T05:14:16.112Z,62.22
2022-12-27T05:16:42.885Z,62.24
2022-12-27T05:19:09.520Z,62.27
2022-12-27T05:21:36.405Z,62.23
2022-12-27T05:24:05.565Z,61.94
2022-12-27T05:26:32.384Z,62.21
2022-12-27T05:28:58.738Z,62.08
2022-12-27T05:31:26.135Z,61.96
2022-12-27T05:33:52.769Z,62.01
2022-12-27T05:36:19.205Z,62.37
2022-12-27T05:38:45.590Z,62.12
2022-12-27T05:41:12.438Z,61.90
2022-12-27T05:43:38.811Z,62.16
2022-12-27T05:46:05.577Z,61.81
2022-12-27T05:48:32.383Z,61.80
2022-12-27T05:50:58.709Z,62.22
2022-12-27T05:53:25.627Z,61.89
2022-12-27T05:55:52.009Z,62.21
2022-12-27T05:58:18.372Z,62.27
2022-12-27T06:00:44.732Z,61.92
2022-12-27T06:03:11.205Z,62.15
2022-12-27T06:05:37.642Z,62.05
2022-12-27T06:08:04.637Z,61.94
2022-12-27T06:10:31.071Z,62.00
2022-12-27T06:12:57.450Z,61.98
2022-12-27T06:15:24.235Z,62.05
2022-12-27T06:17:50.670Z,61.95
2022-12-27T06:20:17.609Z,61.85
2022-12-27T06:22:44.174Z,62.00
2022-12-27T06:25:14.328Z,62.05
2022-12-27T06:27:41.485Z,62.26
2022-12-27T06:30:07.807Z,62.06
2022-12-27T06:32:34.502Z,62.19
2022-12-27T06:35:00.825Z,62.07
2022-12-27T06:37:27.667Z,62.11
2022-12-27T06:39:53.998Z,62.30
2022-12-27T06:42:20.386Z,62.30
2022-12-27T06:44:47.203Z,61.93
2022-12-27T06:47:13.734Z,61.99
2022-12-27T06:49:40.055Z,61.94
2022-12-27T06:52:06.411Z,62.00
2022-12-27T06:54:32.826Z,62.14
2022-12-27T06:56:59.505Z,61.89
2022-12-27T06:59:25.859Z,61.97
2022-12-27T07:01:52.526Z,62.12
2022-12-27T07:04:19.080Z,62.02
2022-12-27T07:06:45.596Z,62.15
2022-12-27T07:09:12.258Z,62.09
2022-12-27T07:11:38.983Z,61.80
2022-12-27T07:14:05.277Z,61.75
2022-12-27T07:16:31.856Z,61.86
2022-12-27T07:18:58.251Z,61.89
2022-12-27T07:21:24.730Z,61.89
2022-12-27T07:23:51.089Z,61.82
2022-12-27T07:26:17.547Z,62.06
2022-12-27T07:28:44.260Z,62.05
2022-12-27T07:31:10.542Z,61.82
2022-12-27T07:33:37.051Z,62.13
2022-12-27T07:36:03.498Z,61.83
2022-12-27T07:38:29.899Z,61.84
2022-12-27T07:40:56.982Z,62.01
2022-12-27T07:43:23.428Z,61.56
2022-12-27T07:45:49.777Z,62.05
2022-12-27T07:48:16.903Z,61.76
2022-12-27T07:50:43.378Z,61.98
2022-12-27T07:53:10.307Z,61.76
2022-12-27T07:55:37.041Z,61.82
2022-12-27T07:58:03.651Z,61.96
2022-12-27T08:00:29.919Z,61.74
2022-12-27T08:02:56.830Z,61.88
2022-12-27T08:05:27.562Z,61.69
2022-12-27T08:07:54.289Z,61.57
2022-12-27T08:10:20.571Z,61.61
2022-12-27T08:12:47.010Z,61.80
2022-12-27T08:15:13.540Z,61.91
2022-12-27T08:17:39.956Z,61.66
2022-12-27T08:20:06.513Z,61.76
2022-12-27T08:22:33.349Z,61.78
2022-12-27T08:24:59.650Z,61.51
2022-12-27T08:27:26.016Z,61.58
2022-12-27T08:29:52.653Z,61.65
2022-12-27T08:32:19.511Z,61.61
2022-12-27T08:34:45.929Z,61.63
2022-12-27T08:37:12.343Z,61.60
2022-12-27T08:39:39.523Z,61.48
2022-12-27T08:42:05.904Z,61.57
2022-12-27T08:44:32.778Z,61.70
2022-12-27T08:46:59.739Z,61.74
2022-12-27T08:49:26.074Z,61.65
2022-12-27T08:51:52.905Z,61.55
2022-12-27T08:54:19.555Z,61.66
2022-12-27T08:56:46.269Z,61.71
2022-12-27T08:59:13.534Z,61.71
2022-12-27T09:01:40.077Z,61.60
2022-12-27T09:04:06.944Z,61.47
2022-12-27T09:06:33.551Z,61.66
2022-12-27T09:08:59.946Z,61.56
2022-12-27T09:11:26.394Z,61.54
2022-12-27T09:13:53.309Z,61.48
2022-12-27T09:16:19.867Z,61.55
2022-12-27T09:18:46.765Z,61.26
2022-12-27T09:21:13.924Z,61.31
2022-12-27T09:23:40.621Z,61.30
2022-12-27T09:26:07.323Z,61.23
2022-12-27T09:28:34.646Z,61.35
2022-12-27T09:31:00.990Z,61.38
2022-12-27T09:33:27.383Z,61.26
2022-12-27T09:35:54.018Z,61.26
2022-12-27T09:38:20.356Z,61.45
2022-12-27T09:40:46.881Z,61.46
2022-12-27T09:43:23.880Z,61.48
2022-12-27T09:45:51.872Z,61.28
2022-12-27T09:48:18.288Z,61.46
2022-12-27T09:50:44.835Z,61.26
2022-12-27T09:53:11.386Z,61.52
2022-12-27T09:55:38.004Z,61.34
2022-12-27T09:58:05.147Z,61.25
2022-12-27T10:00:34.601Z,61.36
2022-12-27T10:03:02.358Z,61.29
2022-12-27T10:05:28.747Z,61.52
2022-12-27T10:07:55.071Z,61.44
2022-12-27T10:10:21.550Z,61.39
2022-12-27T10:12:47.946Z,60.97
2022-12-27T10:15:14.538Z,61.42
2022-12-27T10:17:41.192Z,61.46
2022-12-27T10:20:07.551Z,61.33
2022-12-27T10:22:34.297Z,61.43
2022-12-27T10:25:00.888Z,61.48
2022-12-27T10:27:27.524Z,61.34
2022-12-27T10:29:53.950Z,61.31
2022-12-27T10:32:20.564Z,61.21
2022-12-27T10:34:47.055Z,61.32
2022-12-27T10:37:13.647Z,61.44
2022-12-27T10:39:40.015Z,61.30
2022-12-27T10:42:06.403Z,61.48
2022-12-27T10:44:32.759Z,61.47
2022-12-27T10:46:59.082Z,61.48
2022-12-27T10:49:25.610Z,61.58
2022-12-27T10:51:52.056Z,61.34
2022-12-27T10:54:18.874Z,61.58
2022-12-27T10:56:45.543Z,61.63
2022-12-27T10:59:11.906Z,61.59
2022-12-27T11:01:38.734Z,61.52
2022-12-27T11:04:05.510Z,61.63
2022-12-27T11:06:31.804Z,61.55
2022-12-27T11:08:58.111Z,61.53
2022-12-27T11:11:24.575Z,61.42
2022-12-27T11:13:51.005Z,61.47
2022-12-27T11:16:17.626Z,61.63
2022-12-27T11:18:43.947Z,61.62
2022-12-27T11:21:16.137Z,61.51
2022-12-27T11:23:48.175Z,61.48
2022-12-27T11:26:14.586Z,61.61
2022-12-27T11:28:41.177Z,61.67
2022-12-27T11:31:07.783Z,61.67
2022-12-27T11:33:34.305Z,61.42
2022-12-27T11:36:00.990Z,61.60
2022-12-27T11:38:27.320Z,61.64
2022-12-27T11:40:53.816Z,61.60
2022-12-27T11:43:20.712Z,61.81
2022-12-27T11:45:47.814Z,61.57
2022-12-27T11:48:14.528Z,61.60
2022-12-27T11:50:41.007Z,61.80
2022-12-27T11:53:07.844Z,61.64
2022-12-27T11:55:34.876Z,61.62
2022-12-27T11:58:01.657Z,61.78
2022-12-27T12:00:28.033Z,61.74
2022-12-27T12:02:54.491Z,61.91
2022-12-27T12:05:21.194Z,61.75
2022-12-27T12:07:47.883Z,61.80
2022-12-27T12:10:14.323Z,61.77
2022-12-27T12:12:40.875Z,61.54
2022-12-27T12:15:07.382Z,62.22
2022-12-27T12:17:36.309Z,61.82
2022-12-27T12:20:03.164Z,61.91
2022-12-27T12:22:29.483Z,61.54
2022-12-27T12:24:55.819Z,61.78
2022-12-27T12:27:22.146Z,61.65
2022-12-27T12:29:48.541Z,61.67
2022-12-27T12:32:14.914Z,61.78
2022-12-27T12:34:41.243Z,61.61
2022-12-27T12:37:08.131Z,61.59
2022-12-27T12:39:34.533Z,61.45
2022-12-27T12:42:01.114Z,61.58
2022-12-27T12:44:27.523Z,61.72
2022-12-27T12:46:53.943Z,61.65
2022-12-27T12:49:20.541Z,61.60
2022-12-27T12:51:47.535Z,61.56
2022-12-27T12:54:13.946Z,61.68
2022-12-27T12:56:40.623Z,61.66
2022-12-27T12:59:07.299Z,61.80
2022-12-27T13:01:33.701Z,61.67
2022-12-27T13:04:00.167Z,61.80
2022-12-27T13:06:27.467Z,61.83
2022-12-27T13:08:54.135Z,61.94
2022-12-27T13:11:20.975Z,61.73
2022-12-27T13:13:47.305Z,61.76
2022-12-27T13:16:13.680Z,61.89
2022-12-27T13:18:40.575Z,61.77
2022-12-27T13:21:07.159Z,61.90
2022-12-27T13:23:33.485Z,61.75
2022-12-27T13:25:59.826Z,61.98
2022-12-27T13:28:26.417Z,61.76
2022-12-27T13:30:53.454Z,61.89
2022-12-27T13:33:19.968Z,61.97
2022-12-27T13:35:46.388Z,61.83
2022-12-27T13:38:12.753Z,61.87
2022-12-27T13:40:39.515Z,61.79
2022-12-27T13:43:05.837Z,61.81
2022-12-27T13:45:32.321Z,61.86
2022-12-27T13:47:58.648Z,62.20
2022-12-27T13:50:25.104Z,62.37
2022-12-27T13:52:57.540Z,62.29
2022-12-27T13:55:27.263Z,62.43
2022-12-27T13:57:54.316Z,62.91
2022-12-27T14:00:20.648Z,62.82
2022-12-27T14:02:47.521Z,63.28
2022-12-27T14:05:14.059Z,63.33
2022-12-27T14:07:40.709Z,63.56
2022-12-27T14:10:07.510Z,63.50
2022-12-27T14:12:34.770Z,63.58
2022-12-27T14:15:01.372Z,63.69
2022-12-27T14:17:28.002Z,63.76
2022-12-27T14:19:54.381Z,63.60
2022-12-27T14:22:20.727Z,63.68
2022-12-27T14:24:47.734Z,63.58
2022-12-27T14:27:14.157Z,63.48
2022-12-27T14:29:40.511Z,63.75
2022-12-27T14:32:07.055Z,63.71
2022-12-27T14:34:33.715Z,63.69
2022-12-27T14:37:00.545Z,63.65
2022-12-27T14:39:27.028Z,63.65
2022-12-27T14:41:53.533Z,63.65
2022-12-27T14:44:19.899Z,63.49
2022-12-27T14:46:46.345Z,63.84
2022-12-27T14:49:13.589Z,63.65
2022-12-27T14:54:27.020Z,63.65
2022-12-27T14:56:53.778Z,63.41
2022-12-27T14:59:20.141Z,63.53
2022-12-27T15:01:46.891Z,63.50
2022-12-27T15:04:13.401Z,63.47
2022-12-27T15:06:39.920Z,63.79
2022-12-27T15:09:07.461Z,63.65
2022-12-27T15:11:34.426Z,63.75
2022-12-27T15:14:00.796Z,63.29
2022-12-27T15:16:27.809Z,63.61
2022-12-27T15:18:54.153Z,63.65
2022-12-27T15:21:20.474Z,63.47
2022-12-27T15:23:47.003Z,63.58
2022-12-27T15:26:13.717Z,63.51
2022-12-27T15:28:40.564Z,63.83
2022-12-27T15:31:07.108Z,63.18
2022-12-27T15:33:33.450Z,63.54
2022-12-27T15:35:59.816Z,63.44
2022-12-27T15:38:26.784Z,63.09
2022-12-27T15:40:53.249Z,63.47
2022-12-27T15:43:19.563Z,63.51
2022-12-27T15:45:45.987Z,63.33
2022-12-27T15:48:12.319Z,63.31
2022-12-27T15:50:38.977Z,63.17
2022-12-27T15:53:05.890Z,63.11
2022-12-27T15:55:32.301Z,63.01
2022-12-27T15:57:59.018Z,63.18
2022-12-27T16:00:27.126Z,62.81
2022-12-27T16:02:56.674Z,62.65
2022-12-27T16:05:23.168Z,62.80
2022-12-27T16:07:49.975Z,62.92
2022-12-27T16:10:16.832Z,62.72
2022-12-27T16:12:43.232Z,62.53
2022-12-27T16:15:09.564Z,62.63
2022-12-27T16:17:36.319Z,62.57
2022-12-27T16:20:02.825Z,62.69
2022-12-27T16:22:29.822Z,62.40
2022-12-27T16:24:56.200Z,62.27
2022-12-27T16:27:23.015Z,62.55
2022-12-27T16:29:49.367Z,62.44
2022-12-27T16:32:15.787Z,62.21
2022-12-27T16:34:42.199Z,62.41
2022-12-27T16:37:08.546Z,62.14
2022-12-27T16:39:35.088Z,62.31
2022-12-27T16:42:01.988Z,62.19
2022-12-27T16:44:30.646Z,62.16
2022-12-27T16:47:00.349Z,61.98
2022-12-27T16:49:26.755Z,62.14
2022-12-27T16:51:53.105Z,61.78
2022-12-27T16:54:19.987Z,61.93
2022-12-27T16:56:46.403Z,61.81
2022-12-27T16:59:12.746Z,61.90
2022-12-27T17:01:39.282Z,61.99
2022-12-27T17:04:05.728Z,62.03
2022-12-27T17:06:33.497Z,61.72
2022-12-27T17:16:58.227Z,61.32
2022-12-27T17:19:25.023Z,61.33
2022-12-27T17:21:51.792Z,60.97
2022-12-27T17:24:18.579Z,60.99
2022-12-27T17:26:45.779Z,60.55
2022-12-27T17:29:12.512Z,60.85
2022-12-27T17:31:39.258Z,60.71
2022-12-27T17:34:05.676Z,60.49
2022-12-27T17:36:32.983Z,60.68
2022-12-27T17:38:59.947Z,60.34
2022-12-27T17:41:26.626Z,60.64
2022-12-27T17:43:53.517Z,60.31
2022-12-27T17:46:20.656Z,60.36
2022-12-27T17:48:47.318Z,60.57
2022-12-27T17:51:14.468Z,60.84
2022-12-27T17:53:41.041Z,61.00
2022-12-27T17:56:07.616Z,61.48
2022-12-27T17:58:34.213Z,61.50
2022-12-27T18:01:00.873Z,61.58
2022-12-27T18:03:27.322Z,61.66
2022-12-27T18:05:53.694Z,61.93
2022-12-27T18:08:20.001Z,62.38
2022-12-27T18:10:46.411Z,62.62
2022-12-27T18:13:13.247Z,62.58
2022-12-27T18:15:39.673Z,62.72
2022-12-27T18:18:06.380Z,62.87
2022-12-27T18:20:33.167Z,63.10
2022-12-27T18:23:00.175Z,63.19
2022-12-27T18:25:26.583Z,63.09
2022-12-27T18:27:52.955Z,63.03
2022-12-27T18:30:19.394Z,63.13
2022-12-27T18:32:45.705Z,63.14
2022-12-27T18:35:11.998Z,63.36
2022-12-27T18:37:38.405Z,63.30
2022-12-27T18:40:04.713Z,63.42
2022-12-27T18:42:31.656Z,63.43
2022-12-27T18:44:58.929Z,63.32
2022-12-27T18:47:25.295Z,63.44
2022-12-27T18:49:51.860Z,63.41
2022-12-27T18:52:18.292Z,63.42
2022-12-27T18:54:44.681Z,63.31
2022-12-27T18:57:11.629Z,63.86
2022-12-27T18:59:37.993Z,63.61
2022-12-27T19:02:04.507Z,63.97
2022-12-27T19:04:31.022Z,63.79
2022-12-27T19:06:57.686Z,63.74
2022-12-27T19:09:24.544Z,63.72
2022-12-27T19:11:51.464Z,64.14
2022-12-27T19:14:17.831Z,64.00
2022-12-27T19:16:44.956Z,63.75
2022-12-27T19:19:11.292Z,64.15
2022-12-27T19:21:37.643Z,64.05
2022-12-27T19:24:04.045Z,63.32
2022-12-27T19:26:30.990Z,63.70
2022-12-27T19:28:57.944Z,63.74
2022-12-27T19:31:24.806Z,63.96
2022-12-27T19:33:51.534Z,63.97
2022-12-27T19:36:18.256Z,63.76
2022-12-27T19:41:24.747Z,64.06
2022-12-27T19:43:51.742Z,64.09
2022-12-27T19:46:18.304Z,64.32
2022-12-27T19:49:07.723Z,63.96
2022-12-27T19:51:31.623Z,64.54
2022-12-27T19:53:58.217Z,64.02
2022-12-27T19:56:24.864Z,64.02
2022-12-27T19:58:51.478Z,64.04
2022-12-27T20:01:17.978Z,64.11
2022-12-27T20:03:44.616Z,64.28
2022-12-27T20:06:15.363Z,64.29
2022-12-27T20:08:48.147Z,64.27
2022-12-27T20:11:15.701Z,64.50
2022-12-27T20:13:42.717Z,64.33
2022-12-27T20:16:09.509Z,64.17
2022-12-27T20:18:36.337Z,64.29
2022-12-27T20:21:03.036Z,64.04
2022-12-27T20:23:29.522Z,64.16
2022-12-27T20:25:56.240Z,64.46
2022-12-27T20:28:22.971Z,64.27
2022-12-27T20:30:49.340Z,64.28
2022-12-27T20:33:16.003Z,64.08
2022-12-27T20:35:42.744Z,63.29
2022-12-27T20:38:09.801Z,62.49
2022-12-27T20:40:36.698Z,61.71
2022-12-27T20:43:03.795Z,61.41
2022-12-27T20:45:31.172Z,61.60
2022-12-27T20:47:58.092Z,61.67
2022-12-27T20:50:24.963Z,61.93
2022-12-27T20:52:51.303Z,61.92
2022-12-27T20:55:17.549Z,61.80
2022-12-27T20:57:44.571Z,62.21
2022-12-27T21:00:11.275Z,62.27
2022-12-27T21:02:37.686Z,62.19
2022-12-27T21:05:04.276Z,62.18
2022-12-27T21:07:31.270Z,61.62
2022-12-27T21:09:57.616Z,61.67
2022-12-27T21:12:24.534Z,61.53
2022-12-27T21:14:50.975Z,61.43
2022-12-27T21:17:17.654Z,61.49
2022-12-27T21:19:44.133Z,61.76
2022-12-27T21:22:10.643Z,61.46
2022-12-27T21:24:37.661Z,61.34
2022-12-27T21:27:04.358Z,61.58
2022-12-27T21:29:31.382Z,61.50
2022-12-27T21:31:57.687Z,61.63
2022-12-27T21:34:24.640Z,61.75
2022-12-27T21:36:50.976Z,61.62
2022-12-27T21:39:17.622Z,61.49
2022-12-27T21:41:44.703Z,61.52
2022-12-27T21:44:11.102Z,61.52
2022-12-27T21:46:37.762Z,61.48
2022-12-27T21:49:04.143Z,61.28
2022-12-27T21:51:31.243Z,61.24
2022-12-27T21:53:58.080Z,61.50
2022-12-27T21:56:24.697Z,61.26
2022-12-27T21:58:51.279Z,61.66
2022-12-27T22:01:18.384Z,61.40
2022-12-27T22:03:45.402Z,61.34
2022-12-27T22:06:11.872Z,61.07
2022-12-27T22:08:38.150Z,61.18
2022-12-27T22:11:04.814Z,61.15
2022-12-27T22:13:31.954Z,61.33
2022-12-27T22:15:59.031Z,61.05
2022-12-27T22:18:25.628Z,60.89
2022-12-27T22:20:52.079Z,61.26
2022-12-27T22:23:18.764Z,61.04
2022-12-27T22:25:45.406Z,60.59
2022-12-27T22:28:11.975Z,60.08
2022-12-27T22:30:38.267Z,60.16
2022-12-27T22:33:05.742Z,60.41
2022-12-27T22:35:32.902Z,60.35
2022-12-27T22:37:59.687Z,60.46
2022-12-27T22:40:40.855Z,60.29
2022-12-27T22:43:13.023Z,60.54
2022-12-27T22:45:39.521Z,60.51
2022-12-27T22:48:06.237Z,60.52
2022-12-27T22:50:32.637Z,60.16
2022-12-27T22:52:59.291Z,60.65
2022-12-27T22:55:26.993Z,60.33
2022-12-27T22:57:54.409Z,60.19
2022-12-27T23:00:20.987Z,60.45
2022-12-27T23:02:47.843Z,60.46
2022-12-27T23:05:15.610Z,60.20
2022-12-27T23:08:04.220Z,60.00
2022-12-27T23:10:28.443Z,60.16
2022-12-27T23:12:55.221Z,60.16
2022-12-27T23:15:21.666Z,60.34
2022-12-27T23:17:47.948Z,60.24
2022-12-27T23:20:15.449Z,59.87
2022-12-27T23:22:41.872Z,60.27
2022-12-27T23:25:08.381Z,60.11
2022-12-27T23:27:35.288Z,60.13
2022-12-27T23:30:01.679Z,60.03
2022-12-27T23:32:28.179Z,60.02
2022-12-27T23:34:54.857Z,59.93
2022-12-27T23:37:21.223Z,59.82
2022-12-27T23:39:47.927Z,59.69
2022-12-27T23:42:14.358Z,59.83
2022-12-27T23:44:40.755Z,59.46
2022-12-27T23:47:07.197Z,59.58
2022-12-27T23:49:34.181Z,59.65
2022-12-27T23:52:00.809Z,59.44
2022-12-27T23:54:27.478Z,59.50
2022-12-27T23:56:53.839Z,59.48
2022-12-27T23:59:20.230Z,59.42
